メインページ
METAR-TAF:

METAR-TAF

空港 :

ヴォルゴグラード, ロシア

ヴォルゴグラード国際空港

緯度: 48-47N, 経度: 044-22E, 海抜: 145m

現時点の気象観測

当レポートは25分前の05:30(UTC)に作成
東/南東の風 6kt、から南/南東の間で変化する
気温 27°C
湿度 32%
気圧 1021 hPa
視程10km以上
1,500メートル以下は雲なし、積乱雲なし

METAR: URWW 200530Z 12003MPS 090V160 CAVOK 27/09 Q1021 R06/010070 NOSIG

時間: 08:55 (05:55 UTC)

予報

当レポートは56分前の04:59(UTC)に作成
予報は20日の 06時(UTC)から 20日の 15時(UTC)まで有効
の風 14kt、最大25ktの突風を伴う
視程10km以上
高度5000ftの雲は散在している, 積乱雲.
高度10000ftの千切れ雲あり
20日の 06時(UTC)から 20日の 15時(UTC)まで一時的に
変向風 19kt、最大31ktの突風を伴う
視程: 3100m
高度1100ftの千切れ雲あり
高度5000ftの雲は散在している, 積乱雲.
高度10000ftの千切れ雲あり
スコール
確率 40%
20日の 06時(UTC)から 20日の 15時(UTC)まで
激しい雷雨, 小雨, 雹

TAF: URWW 200459Z 2006/2015 10007G13MPS 9999 SCT050CB BKN100 TEMPO 2006/2015 VRB10G16MPS 3100 -DS SQ BKN011 SCT050CB BKN100 PROB40 2006/2015 -TSRAGR

4,000以上の空港の気象観測と天気予報(METAR報とTAF報)

利用可能な観測所は地図上に黄色い丸と赤い丸で示す。

丸の上にカーソルを重ねると観測所名を参照できる。

次にクリックすると気象観測と天気予報を参照できる。

マップの切り替え:黒色「×」印の緑ボタンをクリックして拡大、「-」印の緑ボタンをクリックして縮小、緑色の三角印をクリックして隣りの地図に切り替え


METAR-TAF: